createdAt,value
2023-05-24T00:01:52.825Z,100399.31
2023-05-24T00:04:42.063Z,100407.84
2023-05-24T00:07:12.738Z,100404.75
2023-05-24T00:09:43.335Z,100403.53
2023-05-24T00:12:13.808Z,100394.09
2023-05-24T00:14:44.358Z,100398.09
2023-05-24T00:17:14.763Z,100395.25
2023-05-24T00:19:45.226Z,100403.63
2023-05-24T00:22:15.682Z,100386.03
2023-05-24T00:24:46.124Z,100371.66
2023-05-24T00:27:17.446Z,100374.94
2023-05-24T00:29:48.094Z,100377.16
2023-05-24T00:32:20.169Z,100388.41
2023-05-24T00:34:54.312Z,100388.09
2023-05-24T00:37:25.122Z,100394.44
2023-05-24T00:39:55.751Z,100393.97
2023-05-24T00:42:26.402Z,100388.03
2023-05-24T00:44:56.990Z,100394.31
2023-05-24T00:47:27.500Z,100400.66
2023-05-24T00:49:58.614Z,100384.97
2023-05-24T00:52:29.100Z,100388.22
2023-05-24T00:55:00.107Z,100384.22
2023-05-24T00:57:31.504Z,100378.44
2023-05-24T01:00:02.592Z,100383.94
2023-05-24T01:02:34.177Z,100390.41
2023-05-24T01:05:05.951Z,100395.31
2023-05-24T01:07:48.305Z,100375.03
2023-05-24T01:10:24.034Z,100382.53
2023-05-24T01:13:28.515Z,100387.78
2023-05-24T01:16:07.348Z,100393.41
2023-05-24T01:18:43.704Z,100403.22
2023-05-24T01:21:16.025Z,100397.84
2023-05-24T01:24:07.385Z,100398.75
2023-05-24T01:26:45.221Z,100390.19
2023-05-24T01:29:16.813Z,100393.13
2023-05-24T01:31:47.667Z,100387.34
2023-05-24T01:34:20.541Z,100394.81
2023-05-24T01:36:51.651Z,100396.44
2023-05-24T01:39:23.815Z,100387.28
2023-05-24T01:42:25.624Z,100391.19
2023-05-24T01:45:01.933Z,100394.66
2023-05-24T01:48:13.685Z,100411.47
2023-05-24T01:50:55.335Z,100393.66
2023-05-24T01:53:34.280Z,100405.34
2023-05-24T01:56:07.789Z,100403.53
2023-05-24T01:58:40.809Z,100413.22
2023-05-24T02:01:12.465Z,100399.53
2023-05-24T02:03:43.404Z,100395.09
2023-05-24T02:06:13.824Z,100397.13
2023-05-24T02:08:44.278Z,100401.16
2023-05-24T02:11:14.692Z,100394.91
2023-05-24T02:13:45.386Z,100399.78
2023-05-24T02:16:15.951Z,100400.94
2023-05-24T02:19:04.321Z,100404.63
2023-05-24T02:21:53.048Z,100398.59
2023-05-24T02:24:23.574Z,100401.44
2023-05-24T02:26:54.084Z,100395.91
2023-05-24T02:29:25.282Z,100385.25
2023-05-24T02:31:58.213Z,100394.69
2023-05-24T02:34:29.026Z,100401.09
2023-05-24T02:36:59.438Z,100388.28
2023-05-24T02:39:30.194Z,100399.53
2023-05-24T02:42:00.873Z,100385.53
2023-05-24T02:44:31.338Z,100382.38
2023-05-24T02:47:01.937Z,100387.75
2023-05-24T02:49:32.453Z,100398.94
2023-05-24T02:52:02.876Z,100390.44
2023-05-24T02:54:33.184Z,100388.66
2023-05-24T02:57:04.354Z,100375.75
2023-05-24T02:59:36.090Z,100383.94
2023-05-24T03:02:06.855Z,100379.38
2023-05-24T03:04:37.370Z,100373.53
2023-05-24T03:07:08.815Z,100390.09
2023-05-24T03:09:39.281Z,100382.91
2023-05-24T03:12:27.835Z,100375.84
2023-05-24T03:14:58.497Z,100374.97
2023-05-24T03:17:29.043Z,100370.03
2023-05-24T03:19:59.593Z,100371.31
2023-05-24T03:22:48.270Z,100367.25
2023-05-24T03:25:18.794Z,100365.97
2023-05-24T03:27:49.951Z,100359.97
2023-05-24T03:30:21.895Z,100362.63
2023-05-24T03:32:56.667Z,100360.53
2023-05-24T03:35:27.293Z,100356.47
2023-05-24T03:37:59.357Z,100353.88
2023-05-24T03:40:34.074Z,100344.28
2023-05-24T03:43:16.110Z,100340.53
2023-05-24T03:45:53.704Z,100340.16
2023-05-24T03:48:24.459Z,100345.91
2023-05-24T03:50:55.490Z,100335.56
2023-05-24T03:53:25.938Z,100327.63
2023-05-24T03:55:57.616Z,100324.91
2023-05-24T03:58:28.161Z,100323.25
2023-05-24T04:00:58.739Z,100324.69
2023-05-24T04:03:30.052Z,100329.38
2023-05-24T04:06:00.570Z,100328.81
2023-05-24T04:08:30.976Z,100316.06
2023-05-24T04:11:01.446Z,100308.41
2023-05-24T04:13:32.344Z,100323.19
2023-05-24T04:16:02.890Z,100329.88
2023-05-24T04:18:33.583Z,100318.94
2023-05-24T04:21:04.134Z,100311.59
2023-05-24T04:23:35.130Z,100319.81
2023-05-24T04:26:05.596Z,100317.41
2023-05-24T04:28:37.458Z,100311.81
2023-05-24T04:31:11.543Z,100321.84
2023-05-24T04:33:43.286Z,100325.66
2023-05-24T04:36:14.881Z,100319.81
2023-05-24T04:38:47.303Z,100325.19
2023-05-24T04:41:17.829Z,100318.97
2023-05-24T04:43:48.604Z,100320.66
2023-05-24T04:46:18.953Z,100314.56
2023-05-24T04:48:49.843Z,100314.50
2023-05-24T04:51:20.601Z,100312.34
2023-05-24T04:53:51.056Z,100306.94
2023-05-24T04:56:21.655Z,100308.72
2023-05-24T04:58:52.042Z,100308.78
2023-05-24T05:01:23.216Z,100303.94
2023-05-24T05:03:53.866Z,100313.56
2023-05-24T05:06:24.431Z,100298.38
2023-05-24T05:08:55.158Z,100302.38
2023-05-24T05:11:25.632Z,100299.09
2023-05-24T05:13:56.350Z,100306.00
2023-05-24T05:16:26.918Z,100301.19
2023-05-24T05:18:57.506Z,100288.19
2023-05-24T05:21:28.069Z,100296.56
2023-05-24T05:23:58.608Z,100302.69
2023-05-24T05:26:32.612Z,100289.25
2023-05-24T05:29:03.129Z,100304.13
2023-05-24T05:31:33.606Z,100296.47
2023-05-24T05:34:04.250Z,100286.88
2023-05-24T05:36:34.853Z,100287.34
2023-05-24T05:39:05.165Z,100284.41
2023-05-24T05:41:35.547Z,100291.41
2023-05-24T05:44:06.019Z,100301.41
2023-05-24T05:46:36.519Z,100293.00
2023-05-24T05:49:08.444Z,100285.16
2023-05-24T05:51:40.351Z,100285.97
2023-05-24T05:54:15.863Z,100300.91
2023-05-24T05:56:49.482Z,100276.19
2023-05-24T05:59:21.410Z,100286.81
2023-05-24T06:01:52.438Z,100288.00
2023-05-24T06:04:22.754Z,100296.66
2023-05-24T06:06:53.666Z,100299.09
2023-05-24T06:09:24.200Z,100295.88
2023-05-24T06:11:54.631Z,100287.91
2023-05-24T06:14:26.642Z,100283.63
2023-05-24T06:16:58.090Z,100293.56
2023-05-24T06:19:30.539Z,100295.00
2023-05-24T06:22:01.817Z,100289.50
2023-05-24T06:24:32.409Z,100286.56
2023-05-24T06:27:05.265Z,100287.44
2023-05-24T06:29:36.008Z,100280.09
2023-05-24T06:32:07.123Z,100279.22
2023-05-24T06:34:37.688Z,100278.94
2023-05-24T06:37:11.804Z,100266.22
2023-05-24T06:39:42.705Z,100274.25
2023-05-24T06:42:13.165Z,100266.75
2023-05-24T06:44:48.373Z,100281.22
2023-05-24T06:47:19.150Z,100280.41
2023-05-24T06:49:50.488Z,100271.53
2023-05-24T06:52:20.902Z,100265.34
2023-05-24T06:54:52.393Z,100262.66
2023-05-24T06:57:23.274Z,100266.19
2023-05-24T06:59:53.712Z,100264.31
2023-05-24T07:02:28.122Z,100265.97
2023-05-24T07:04:58.717Z,100276.28
2023-05-24T07:07:29.150Z,100272.34
2023-05-24T07:09:59.729Z,100262.06
2023-05-24T07:12:30.194Z,100267.81
2023-05-24T07:15:00.772Z,100267.00
2023-05-24T07:17:31.284Z,100268.25
2023-05-24T07:20:03.811Z,100265.75
2023-05-24T07:22:33.618Z,100269.69
2023-05-24T07:25:04.382Z,100276.28
2023-05-24T07:27:34.838Z,100262.47
2023-05-24T07:30:09.518Z,100272.94
2023-05-24T07:32:47.892Z,100283.47
2023-05-24T07:35:18.487Z,100269.31
2023-05-24T07:37:49.393Z,100265.94
2023-05-24T07:40:19.926Z,100271.53
2023-05-24T07:42:50.612Z,100261.44
2023-05-24T07:45:21.228Z,100262.88
2023-05-24T07:47:53.212Z,100264.06
2023-05-24T07:50:24.812Z,100261.16
2023-05-24T07:52:56.150Z,100258.91
2023-05-24T07:55:26.605Z,100263.31
2023-05-24T07:57:58.143Z,100258.75
2023-05-24T08:00:29.311Z,100258.91
2023-05-24T08:02:59.804Z,100253.16
2023-05-24T08:05:30.505Z,100262.88
2023-05-24T08:08:00.989Z,100247.88
2023-05-24T08:10:31.531Z,100257.69
2023-05-24T08:13:02.188Z,100259.13
2023-05-24T08:15:32.747Z,100259.19
2023-05-24T08:18:03.200Z,100260.41
2023-05-24T08:20:37.574Z,100252.56
2023-05-24T08:23:26.118Z,100257.94
2023-05-24T08:25:56.698Z,100265.09
2023-05-24T08:28:27.147Z,100259.56
2023-05-24T08:30:58.857Z,100265.78
2023-05-24T08:33:30.607Z,100265.16
2023-05-24T08:36:01.067Z,100259.78
2023-05-24T08:38:31.542Z,100270.84
2023-05-24T08:41:02.358Z,100274.56
2023-05-24T08:43:33.012Z,100271.34
2023-05-24T08:46:05.266Z,100262.78
2023-05-24T08:48:55.060Z,100261.84
2023-05-24T08:51:26.372Z,100256.09
2023-05-24T08:53:57.730Z,100256.06
2023-05-24T08:56:30.492Z,100257.50
2023-05-24T08:59:00.878Z,100264.84
2023-05-24T09:01:34.620Z,100267.91
2023-05-24T09:04:08.325Z,100266.94
2023-05-24T09:06:39.228Z,100265.13
2023-05-24T09:09:10.972Z,100267.38
2023-05-24T09:11:44.875Z,100265.81
2023-05-24T09:14:16.515Z,100267.56
2023-05-24T09:16:47.127Z,100266.59
2023-05-24T09:19:18.561Z,100273.22
2023-05-24T09:21:51.013Z,100276.41
2023-05-24T09:24:21.881Z,100281.63
2023-05-24T09:26:55.559Z,100281.06
2023-05-24T09:29:26.226Z,100286.00
2023-05-24T09:31:59.141Z,100282.34
2023-05-24T09:34:29.672Z,100288.19
2023-05-24T09:37:00.181Z,100295.16
2023-05-24T09:39:31.037Z,100291.63
2023-05-24T09:42:01.273Z,100291.84
2023-05-24T09:44:31.670Z,100305.72
2023-05-24T09:47:09.119Z,100296.00
2023-05-24T09:49:40.327Z,100297.59
2023-05-24T09:52:10.810Z,100293.00
2023-05-24T09:54:43.259Z,100304.03
2023-05-24T09:57:13.758Z,100299.88
2023-05-24T09:59:45.765Z,100296.38
2023-05-24T10:02:17.660Z,100297.09
2023-05-24T10:04:48.664Z,100306.97
2023-05-24T10:07:20.016Z,100304.38
2023-05-24T10:09:51.673Z,100310.09
2023-05-24T10:12:24.698Z,100314.03
2023-05-24T10:14:59.004Z,100317.09
2023-05-24T10:17:30.400Z,100315.91
2023-05-24T10:20:00.910Z,100319.59
2023-05-24T10:22:32.057Z,100328.09
2023-05-24T10:25:03.103Z,100317.13
2023-05-24T10:27:34.895Z,100330.31
2023-05-24T10:30:23.685Z,100332.78
2023-05-24T10:32:55.977Z,100325.59
2023-05-24T10:35:28.963Z,100328.63
2023-05-24T10:37:59.614Z,100331.13
2023-05-24T10:40:30.229Z,100332.75
2023-05-24T10:43:00.800Z,100330.09
2023-05-24T10:45:32.781Z,100338.53
2023-05-24T10:48:32.013Z,100338.34
2023-05-24T10:51:23.800Z,100331.34
2023-05-24T10:53:54.180Z,100340.00
2023-05-24T10:56:25.274Z,100342.72
2023-05-24T10:59:01.282Z,100345.56
2023-05-24T11:01:33.594Z,100349.28
2023-05-24T11:04:18.397Z,100345.75
2023-05-24T11:07:19.651Z,100345.75
2023-05-24T11:09:58.478Z,100343.91
2023-05-24T11:12:40.084Z,100351.66
2023-05-24T11:15:14.118Z,100355.59
2023-05-24T11:18:14.342Z,100352.22
2023-05-24T11:21:05.487Z,100355.66
2023-05-24T11:23:38.163Z,100355.47
2023-05-24T11:26:09.383Z,100365.53
2023-05-24T11:28:40.555Z,100374.59
2023-05-24T11:31:11.546Z,100359.56
2023-05-24T11:33:44.282Z,100367.03
2023-05-24T11:36:14.872Z,100376.84
2023-05-24T11:38:45.338Z,100379.72
2023-05-24T11:41:15.948Z,100383.34
2023-05-24T11:43:47.550Z,100388.22
2023-05-24T11:46:21.897Z,100389.22
2023-05-24T11:49:02.541Z,100392.50
2023-05-24T11:51:34.742Z,100399.53
2023-05-24T11:54:05.149Z,100399.50
2023-05-24T11:56:35.541Z,100408.22
2023-05-24T11:59:18.128Z,100414.44
2023-05-24T12:01:48.726Z,100405.66
2023-05-24T12:04:19.134Z,100417.47
2023-05-24T12:06:49.824Z,100423.09
2023-05-24T12:09:20.445Z,100425.28
2023-05-24T12:11:52.556Z,100430.88
2023-05-24T12:14:27.652Z,100430.59
2023-05-24T12:16:58.903Z,100438.88
2023-05-24T12:19:37.602Z,100438.25
2023-05-24T12:22:09.642Z,100446.16
2023-05-24T12:24:40.113Z,100448.00
2023-05-24T12:27:11.652Z,100446.69
2023-05-24T12:29:43.792Z,100451.94
2023-05-24T12:32:15.096Z,100452.84
2023-05-24T12:34:46.935Z,100451.44
2023-05-24T12:37:17.679Z,100464.34
2023-05-24T12:39:48.491Z,100465.28
2023-05-24T12:42:18.865Z,100464.84
2023-05-24T12:45:07.740Z,100466.38
2023-05-24T12:47:38.691Z,100463.16
2023-05-24T12:50:09.506Z,100463.78
2023-05-24T12:52:40.301Z,100469.50
2023-05-24T12:55:11.045Z,100472.44
2023-05-24T12:57:42.306Z,100475.25
2023-05-24T13:00:14.608Z,100482.19
2023-05-24T13:02:45.286Z,100479.16
2023-05-24T13:05:15.820Z,100484.38
2023-05-24T13:07:47.402Z,100483.28
2023-05-24T13:10:17.830Z,100488.72
2023-05-24T13:12:48.930Z,100484.97
2023-05-24T13:15:21.017Z,100484.91
2023-05-24T13:17:51.529Z,100491.97
2023-05-24T13:20:23.962Z,100488.03
2023-05-24T13:22:55.125Z,100484.28
2023-05-24T13:25:25.740Z,100495.16
2023-05-24T13:27:56.101Z,100498.88
2023-05-24T13:30:29.421Z,100496.28
2023-05-24T13:33:01.025Z,100490.19
2023-05-24T13:35:32.794Z,100497.28
2023-05-24T13:38:03.092Z,100495.00
2023-05-24T13:40:33.901Z,100489.84
2023-05-24T13:43:05.411Z,100484.53
2023-05-24T13:45:36.054Z,100486.03
2023-05-24T13:48:07.096Z,100490.81
2023-05-24T13:50:38.964Z,100489.44
2023-05-24T13:53:10.446Z,100478.09
2023-05-24T13:55:41.009Z,100485.09
2023-05-24T13:58:12.070Z,100490.81
2023-05-24T14:00:44.177Z,100489.63
2023-05-24T14:03:16.241Z,100495.13
2023-05-24T14:05:46.719Z,100488.25
2023-05-24T14:08:17.573Z,100483.00
2023-05-24T14:10:51.350Z,100486.72
2023-05-24T14:14:04.721Z,100492.06
2023-05-24T14:16:13.224Z,100485.56
2023-05-24T14:18:44.729Z,100489.81
2023-05-24T14:21:15.130Z,100497.13
2023-05-24T14:24:03.597Z,100501.22
2023-05-24T14:26:34.021Z,100500.41
2023-05-24T14:29:04.650Z,100505.28
2023-05-24T14:31:37.211Z,100503.00
2023-05-24T14:34:07.741Z,100503.19
2023-05-24T14:36:40.093Z,100504.47
2023-05-24T14:39:09.926Z,100499.97
2023-05-24T14:41:40.253Z,100501.59
2023-05-24T14:44:10.695Z,100507.84
2023-05-24T14:46:43.204Z,100504.88
2023-05-24T14:49:13.776Z,100501.50
2023-05-24T14:51:44.246Z,100505.09
2023-05-24T14:54:14.679Z,100513.81
2023-05-24T14:56:45.171Z,100507.56
2023-05-24T14:59:16.177Z,100518.34
2023-05-24T15:01:46.695Z,100515.94
2023-05-24T15:04:17.419Z,100513.75
2023-05-24T15:06:47.997Z,100524.22
2023-05-24T15:09:18.456Z,100518.09
2023-05-24T15:11:49.216Z,100515.16
2023-05-24T15:14:19.813Z,100511.50
2023-05-24T15:16:51.154Z,100522.34
2023-05-24T15:19:21.779Z,100510.03
2023-05-24T15:21:52.375Z,100517.34
2023-05-24T15:24:22.802Z,100508.75
2023-05-24T15:26:53.844Z,100511.50
2023-05-24T15:29:24.403Z,100509.19
2023-05-24T15:31:54.979Z,100506.31
2023-05-24T15:34:25.460Z,100500.97
2023-05-24T15:36:56.026Z,100499.13
2023-05-24T15:39:26.425Z,100507.13
2023-05-24T15:41:57.065Z,100509.78
2023-05-24T15:44:27.466Z,100505.31
2023-05-24T15:46:58.053Z,100515.81
2023-05-24T15:49:28.781Z,100511.66
2023-05-24T15:52:04.179Z,100508.28
2023-05-24T15:54:35.359Z,100512.84
2023-05-24T15:57:05.771Z,100509.09
2023-05-24T15:59:38.377Z,100513.25
2023-05-24T16:02:10.034Z,100510.16
2023-05-24T16:04:40.864Z,100523.56
2023-05-24T16:07:11.506Z,100514.53
2023-05-24T16:09:41.790Z,100520.88
2023-05-24T16:12:12.446Z,100527.66
2023-05-24T16:14:42.834Z,100530.25
2023-05-24T16:17:13.580Z,100526.03
2023-05-24T16:19:44.415Z,100532.34
2023-05-24T16:22:14.800Z,100530.78
2023-05-24T16:24:46.324Z,100525.81
2023-05-24T16:27:16.964Z,100522.91
2023-05-24T16:29:48.409Z,100526.63
2023-05-24T16:32:18.843Z,100526.50
2023-05-24T16:34:56.911Z,100528.53
2023-05-24T16:37:27.778Z,100520.41
2023-05-24T16:39:58.225Z,100515.03
2023-05-24T16:42:28.580Z,100518.69
2023-05-24T16:44:59.091Z,100516.38
2023-05-24T16:47:30.296Z,100507.75
2023-05-24T16:50:00.828Z,100506.19
2023-05-24T16:52:31.423Z,100497.47
2023-05-24T16:55:02.062Z,100506.41
2023-05-24T16:57:50.759Z,100507.44
2023-05-24T17:00:21.645Z,100505.75
2023-05-24T17:02:52.191Z,100512.47
2023-05-24T17:05:22.868Z,100516.91
2023-05-24T17:07:53.374Z,100513.66
2023-05-24T17:10:23.989Z,100516.50
2023-05-24T17:12:54.848Z,100517.69
2023-05-24T17:15:25.341Z,100518.28
2023-05-24T17:17:57.706Z,100517.31
2023-05-24T17:20:28.335Z,100523.16
2023-05-24T17:22:58.913Z,100526.97
2023-05-24T17:25:30.419Z,100522.38
2023-05-24T17:28:00.815Z,100528.31
2023-05-24T17:30:31.945Z,100529.13
2023-05-24T17:33:02.581Z,100538.63
2023-05-24T17:35:33.126Z,100544.88
2023-05-24T17:38:03.550Z,100549.97
2023-05-24T17:40:34.014Z,100548.25
2023-05-24T17:43:05.563Z,100547.41
2023-05-24T17:45:36.117Z,100547.97
2023-05-24T17:48:06.790Z,100556.56
2023-05-24T17:50:37.817Z,100550.34
2023-05-24T17:53:13.195Z,100552.25
2023-05-24T17:55:53.720Z,100550.34
2023-05-24T17:58:24.214Z,100538.63
2023-05-24T18:00:54.999Z,100545.56
2023-05-24T18:03:25.898Z,100542.81
2023-05-24T18:05:56.521Z,100538.63
2023-05-24T18:08:27.071Z,100534.16
2023-05-24T18:10:57.484Z,100523.88
2023-05-24T18:13:29.619Z,100522.91
2023-05-24T18:16:00.005Z,100516.78
2023-05-24T18:18:31.263Z,100512.88
2023-05-24T18:21:02.098Z,100524.16
2023-05-24T18:23:35.577Z,100530.03
2023-05-24T18:26:15.045Z,100534.75
2023-05-24T18:28:45.760Z,100538.13
2023-05-24T18:31:16.450Z,100536.00
2023-05-24T18:33:47.117Z,100537.03
2023-05-24T18:36:17.575Z,100533.03
2023-05-24T18:38:48.892Z,100529.16
2023-05-24T18:41:19.953Z,100521.47
2023-05-24T18:43:50.564Z,100526.50
2023-05-24T18:46:21.067Z,100529.44
2023-05-24T18:48:51.610Z,100526.63
2023-05-24T18:51:22.076Z,100521.66
2023-05-24T18:53:53.280Z,100523.78
2023-05-24T18:56:24.385Z,100515.81
2023-05-24T18:58:55.800Z,100510.63
2023-05-24T19:01:26.947Z,100512.06
2023-05-24T19:03:57.663Z,100507.72
2023-05-24T19:06:28.196Z,100519.31
2023-05-24T19:08:58.694Z,100508.50
2023-05-24T19:11:29.799Z,100500.63
2023-05-24T19:14:00.202Z,100511.81
2023-05-24T19:16:30.886Z,100503.72
2023-05-24T19:19:01.707Z,100509.84
2023-05-24T19:21:34.683Z,100502.38
2023-05-24T19:24:05.125Z,100504.47
2023-05-24T19:26:35.555Z,100504.00
2023-05-24T19:29:06.166Z,100521.44
2023-05-24T19:31:37.763Z,100524.66
2023-05-24T19:34:08.248Z,100525.34
2023-05-24T19:36:38.820Z,100524.22
2023-05-24T19:39:09.376Z,100531.06
2023-05-24T19:41:40.071Z,100538.13
2023-05-24T19:44:10.979Z,100542.47
2023-05-24T19:46:41.364Z,100541.28
2023-05-24T19:49:13.664Z,100547.91
2023-05-24T19:51:44.095Z,100545.06
2023-05-24T19:54:15.257Z,100564.75
2023-05-24T19:56:47.279Z,100570.16
2023-05-24T19:59:17.743Z,100570.56
2023-05-24T20:01:48.163Z,100561.38
2023-05-24T20:04:19.025Z,100550.59
2023-05-24T20:06:49.715Z,100555.72
2023-05-24T20:09:20.360Z,100566.31
2023-05-24T20:11:50.996Z,100573.94
2023-05-24T20:14:21.477Z,100572.63
2023-05-24T20:16:51.886Z,100563.59
2023-05-24T20:19:23.695Z,100563.09
2023-05-24T20:21:54.457Z,100580.00
2023-05-24T20:24:24.946Z,100568.53
2023-05-24T20:26:55.345Z,100583.19
2023-05-24T20:29:25.734Z,100577.84
2023-05-24T20:31:56.210Z,100579.97
2023-05-24T20:34:26.672Z,100596.34
2023-05-24T20:36:57.214Z,100592.00
2023-05-24T20:39:27.867Z,100583.75
2023-05-24T20:41:58.674Z,100598.59
2023-05-24T20:44:29.230Z,100600.19
2023-05-24T20:46:59.653Z,100586.66
2023-05-24T20:49:30.173Z,100590.78
2023-05-24T20:52:00.805Z,100602.25
2023-05-24T20:54:32.513Z,100605.47
2023-05-24T20:57:03.539Z,100606.38
2023-05-24T20:59:33.953Z,100612.31
2023-05-24T21:02:04.365Z,100617.97
2023-05-24T21:04:34.867Z,100619.50
2023-05-24T21:07:05.409Z,100625.22
2023-05-24T21:09:36.133Z,100615.97
2023-05-24T21:12:07.877Z,100620.94
2023-05-24T21:14:38.406Z,100624.25
2023-05-24T21:17:08.829Z,100624.22
2023-05-24T21:19:39.154Z,100621.72
2023-05-24T21:22:09.716Z,100620.06
2023-05-24T21:24:40.184Z,100621.47
2023-05-24T21:27:11.016Z,100615.53
2023-05-24T21:29:43.238Z,100619.47
2023-05-24T21:32:32.026Z,100630.03
2023-05-24T21:35:02.706Z,100629.28
2023-05-24T21:37:33.169Z,100638.13
2023-05-24T21:40:03.600Z,100644.50
2023-05-24T21:42:34.170Z,100641.66
2023-05-24T21:45:04.432Z,100646.63
2023-05-24T21:47:36.885Z,100651.25
2023-05-24T21:50:07.755Z,100653.47
2023-05-24T21:52:38.212Z,100657.69
2023-05-24T21:55:09.002Z,100651.88
2023-05-24T21:57:39.697Z,100657.63
2023-05-24T22:00:10.813Z,100658.47
2023-05-24T22:02:41.291Z,100649.22
2023-05-24T22:05:12.073Z,100649.34
2023-05-24T22:08:00.618Z,100652.53
2023-05-24T22:10:31.342Z,100650.56
2023-05-24T22:13:02.068Z,100669.88
2023-05-24T22:15:32.838Z,100662.53
2023-05-24T22:18:03.395Z,100673.09
2023-05-24T22:20:34.098Z,100676.59
2023-05-24T22:23:04.978Z,100678.25
2023-05-24T22:25:35.431Z,100681.25
2023-05-24T22:28:07.018Z,100686.88
2023-05-24T22:30:38.694Z,100682.19
2023-05-24T22:33:09.170Z,100677.16
2023-05-24T22:35:39.591Z,100685.16
2023-05-24T22:38:10.176Z,100667.16
2023-05-24T22:40:43.543Z,100681.28
2023-05-24T22:43:13.927Z,100672.50
2023-05-24T22:45:44.707Z,100664.66
2023-05-24T22:48:15.394Z,100676.91
2023-05-24T22:50:45.835Z,100690.66
2023-05-24T22:53:18.691Z,100688.56
2023-05-24T22:55:49.317Z,100682.50
2023-05-24T22:58:22.999Z,100685.50
2023-05-24T23:00:53.849Z,100688.00
2023-05-24T23:03:24.394Z,100675.84
2023-05-24T23:05:55.310Z,100679.13
2023-05-24T23:08:27.208Z,100684.44
2023-05-24T23:10:59.661Z,100683.44
2023-05-24T23:13:34.598Z,100676.22
2023-05-24T23:16:06.875Z,100668.53
2023-05-24T23:18:39.173Z,100677.22
2023-05-24T23:21:11.686Z,100677.88
2023-05-24T23:23:42.604Z,100681.16
2023-05-24T23:26:13.043Z,100659.72
2023-05-24T23:28:44.804Z,100666.06
2023-05-24T23:31:15.301Z,100656.88
2023-05-24T23:33:45.853Z,100654.91
2023-05-24T23:36:16.293Z,100648.84
2023-05-24T23:38:47.188Z,100662.91
2023-05-24T23:41:17.878Z,100659.16
2023-05-24T23:43:48.351Z,100653.22
2023-05-24T23:46:18.951Z,100647.22
2023-05-24T23:48:49.436Z,100640.19
2023-05-24T23:51:21.723Z,100638.28
2023-05-24T23:53:52.298Z,100638.19
2023-05-24T23:56:23.021Z,100618.84
2023-05-24T23:58:54.581Z,100631.53
